sensor_id;sensor_type;location;lat;lon;timestamp;pressure;altitude;pressure_sealevel;temperature;humidity
53960;BME280;39866;48.638;-2.020;2023-02-22T00:00:13;101190.00;;;14.07;67.42
53960;BME280;39866;48.638;-2.020;2023-02-22T00:02:52;101181.81;;;14.11;67.45
53960;BME280;39866;48.638;-2.020;2023-02-22T00:05:24;101181.63;;;14.16;67.38
53960;BME280;39866;48.638;-2.020;2023-02-22T00:07:50;101178.84;;;14.19;67.29
53960;BME280;39866;48.638;-2.020;2023-02-22T00:10:16;101178.25;;;14.11;67.57
53960;BME280;39866;48.638;-2.020;2023-02-22T00:12:49;101182.56;;;14.15;67.42
53960;BME280;39866;48.638;-2.020;2023-02-22T00:15:19;101194.13;;;14.17;67.44
53960;BME280;39866;48.638;-2.020;2023-02-22T00:17:45;101196.97;;;14.36;66.81
53960;BME280;39866;48.638;-2.020;2023-02-22T00:20:12;101194.13;;;14.17;66.90
53960;BME280;39866;48.638;-2.020;2023-02-22T00:22:43;101185.19;;;14.42;66.43
53960;BME280;39866;48.638;-2.020;2023-02-22T00:25:15;101184.94;;;14.49;66.32
53960;BME280;39866;48.638;-2.020;2023-02-22T00:27:44;101187.59;;;14.49;66.31
53960;BME280;39866;48.638;-2.020;2023-02-22T00:30:15;101188.63;;;14.45;66.45
53960;BME280;39866;48.638;-2.020;2023-02-22T00:32:45;101191.59;;;14.37;66.55
53960;BME280;39866;48.638;-2.020;2023-02-22T00:35:12;101188.75;;;14.41;66.46
53960;BME280;39866;48.638;-2.020;2023-02-22T00:37:37;101187.72;;;14.45;66.68
53960;BME280;39866;48.638;-2.020;2023-02-22T00:40:10;101186.72;;;14.49;66.46
53960;BME280;39866;48.638;-2.020;2023-02-22T00:42:36;101182.19;;;14.51;66.35
53960;BME280;39866;48.638;-2.020;2023-02-22T00:45:03;101180.81;;;14.39;66.18
53960;BME280;39866;48.638;-2.020;2023-02-22T00:47:30;101182.44;;;14.43;66.46
53960;BME280;39866;48.638;-2.020;2023-02-22T00:49:55;101188.34;;;14.53;66.34
53960;BME280;39866;48.638;-2.020;2023-02-22T00:52:21;101185.97;;;14.44;66.23
53960;BME280;39866;48.638;-2.020;2023-02-22T00:54:46;101189.50;;;14.46;66.34
53960;BME280;39866;48.638;-2.020;2023-02-22T00:57:12;101195.25;;;14.35;66.46
53960;BME280;39866;48.638;-2.020;2023-02-22T00:59:37;101183.59;;;14.36;66.42
53960;BME280;39866;48.638;-2.020;2023-02-22T01:02:02;101190.72;;;14.37;66.67
53960;BME280;39866;48.638;-2.020;2023-02-22T01:04:28;101186.69;;;14.25;66.85
53960;BME280;39866;48.638;-2.020;2023-02-22T01:06:53;101188.03;;;14.12;66.84
53960;BME280;39866;48.638;-2.020;2023-02-22T01:09:20;101181.78;;;14.13;66.73
53960;BME280;39866;48.638;-2.020;2023-02-22T01:11:46;101188.34;;;14.04;67.71
53960;BME280;39866;48.638;-2.020;2023-02-22T01:14:11;101189.03;;;14.09;66.97
53960;BME280;39866;48.638;-2.020;2023-02-22T01:16:37;101191.75;;;14.08;67.27
53960;BME280;39866;48.638;-2.020;2023-02-22T01:19:02;101185.22;;;14.17;67.33
53960;BME280;39866;48.638;-2.020;2023-02-22T01:21:28;101177.78;;;14.00;67.04
53960;BME280;39866;48.638;-2.020;2023-02-22T01:23:53;101176.25;;;13.93;67.67
53960;BME280;39866;48.638;-2.020;2023-02-22T01:26:19;101191.56;;;13.89;68.05
53960;BME280;39866;48.638;-2.020;2023-02-22T01:28:44;101186.69;;;14.00;67.80
53960;BME280;39866;48.638;-2.020;2023-02-22T01:31:10;101181.31;;;14.25;67.12
53960;BME280;39866;48.638;-2.020;2023-02-22T01:33:36;101195.47;;;14.04;67.80
53960;BME280;39866;48.638;-2.020;2023-02-22T01:36:03;101189.25;;;14.03;67.90
53960;BME280;39866;48.638;-2.020;2023-02-22T01:38:29;101193.19;;;14.18;67.16
53960;BME280;39866;48.638;-2.020;2023-02-22T01:40:54;101184.44;;;14.13;67.66
53960;BME280;39866;48.638;-2.020;2023-02-22T01:43:23;101183.06;;;14.26;67.42
53960;BME280;39866;48.638;-2.020;2023-02-22T01:45:53;101187.38;;;14.30;67.09
53960;BME280;39866;48.638;-2.020;2023-02-22T01:51:00;101187.75;;;14.20;67.08
53960;BME280;39866;48.638;-2.020;2023-02-22T01:53:38;101188.25;;;14.31;67.12
53960;BME280;39866;48.638;-2.020;2023-02-22T01:56:06;101181.63;;;14.16;67.42
53960;BME280;39866;48.638;-2.020;2023-02-22T01:58:34;101199.84;;;14.31;66.73
53960;BME280;39866;48.638;-2.020;2023-02-22T02:01:00;101195.06;;;14.40;66.80
53960;BME280;39866;48.638;-2.020;2023-02-22T02:03:32;101188.72;;;14.42;66.79
53960;BME280;39866;48.638;-2.020;2023-02-22T02:06:02;101192.50;;;14.36;67.24
53960;BME280;39866;48.638;-2.020;2023-02-22T02:08:44;101184.31;;;14.41;66.81
53960;BME280;39866;48.638;-2.020;2023-02-22T02:11:14;101188.28;;;14.06;67.47
53960;BME280;39866;48.638;-2.020;2023-02-22T02:13:40;101181.47;;;13.96;67.83
53960;BME280;39866;48.638;-2.020;2023-02-22T02:16:06;101181.03;;;13.83;68.50
53960;BME280;39866;48.638;-2.020;2023-02-22T02:18:31;101184.50;;;13.86;69.06
53960;BME280;39866;48.638;-2.020;2023-02-22T02:21:23;101179.72;;;13.70;69.13
53960;BME280;39866;48.638;-2.020;2023-02-22T02:35:20;101168.97;;;13.71;68.78
53960;BME280;39866;48.638;-2.020;2023-02-22T02:42:32;101174.72;;;13.85;68.43
53960;BME280;39866;48.638;-2.020;2023-02-22T02:45:04;101184.41;;;13.63;69.08
53960;BME280;39866;48.638;-2.020;2023-02-22T02:47:36;101176.25;;;13.68;68.82
53960;BME280;39866;48.638;-2.020;2023-02-22T02:52:33;101173.25;;;13.50;68.57
53960;BME280;39866;48.638;-2.020;2023-02-22T02:55:01;101174.44;;;13.42;69.04
53960;BME280;39866;48.638;-2.020;2023-02-22T02:57:28;101160.94;;;13.71;68.38
53960;BME280;39866;48.638;-2.020;2023-02-22T02:59:53;101168.16;;;13.69;68.14
53960;BME280;39866;48.638;-2.020;2023-02-22T03:07:41;101161.84;;;13.97;66.99
53960;BME280;39866;48.638;-2.020;2023-02-22T03:13:49;101148.91;;;14.08;66.51
53960;BME280;39866;48.638;-2.020;2023-02-22T03:16:31;101142.41;;;14.15;65.96
53960;BME280;39866;48.638;-2.020;2023-02-22T03:24:33;101149.81;;;14.08;66.39
53960;BME280;39866;48.638;-2.020;2023-02-22T03:27:11;101131.91;;;13.85;66.76
53960;BME280;39866;48.638;-2.020;2023-02-22T03:29:41;101130.63;;;13.96;66.34
53960;BME280;39866;48.638;-2.020;2023-02-22T03:32:13;101126.63;;;14.07;65.46
53960;BME280;39866;48.638;-2.020;2023-02-22T03:34:42;101127.63;;;14.05;65.71
53960;BME280;39866;48.638;-2.020;2023-02-22T03:37:18;101137.69;;;13.98;66.01
53960;BME280;39866;48.638;-2.020;2023-02-22T03:39:48;101137.56;;;14.01;66.07
53960;BME280;39866;48.638;-2.020;2023-02-22T03:42:20;101122.28;;;14.05;65.67
53960;BME280;39866;48.638;-2.020;2023-02-22T03:44:49;101134.56;;;14.10;65.52
53960;BME280;39866;48.638;-2.020;2023-02-22T03:47:21;101132.91;;;14.06;65.66
53960;BME280;39866;48.638;-2.020;2023-02-22T03:49:54;101131.00;;;14.10;65.39
53960;BME280;39866;48.638;-2.020;2023-02-22T03:52:22;101122.09;;;14.09;65.33
53960;BME280;39866;48.638;-2.020;2023-02-22T03:54:49;101133.56;;;14.13;65.45
53960;BME280;39866;48.638;-2.020;2023-02-22T03:57:47;101123.25;;;14.02;65.68
53960;BME280;39866;48.638;-2.020;2023-02-22T04:00:18;101125.00;;;14.03;65.66
53960;BME280;39866;48.638;-2.020;2023-02-22T04:02:44;101122.63;;;14.19;65.37
53960;BME280;39866;48.638;-2.020;2023-02-22T04:05:09;101112.09;;;14.15;65.36
53960;BME280;39866;48.638;-2.020;2023-02-22T04:07:35;101119.34;;;14.11;65.17
53960;BME280;39866;48.638;-2.020;2023-02-22T04:10:00;101119.47;;;14.08;65.35
53960;BME280;39866;48.638;-2.020;2023-02-22T04:12:33;101118.88;;;14.00;65.25
53960;BME280;39866;48.638;-2.020;2023-02-22T04:14:58;101118.78;;;14.03;65.49
53960;BME280;39866;48.638;-2.020;2023-02-22T04:17:23;101114.25;;;14.05;65.17
53960;BME280;39866;48.638;-2.020;2023-02-22T04:19:49;101116.00;;;14.06;65.57
53960;BME280;39866;48.638;-2.020;2023-02-22T04:22:15;101115.63;;;14.15;65.25
53960;BME280;39866;48.638;-2.020;2023-02-22T04:24:41;101113.53;;;14.00;65.27
53960;BME280;39866;48.638;-2.020;2023-02-22T04:27:06;101121.75;;;14.19;65.17
53960;BME280;39866;48.638;-2.020;2023-02-22T04:29:31;101112.91;;;14.17;65.18
53960;BME280;39866;48.638;-2.020;2023-02-22T04:31:57;101119.00;;;14.20;65.09
53960;BME280;39866;48.638;-2.020;2023-02-22T04:34:22;101120.59;;;14.26;65.20
53960;BME280;39866;48.638;-2.020;2023-02-22T04:36:47;101116.31;;;14.20;64.94
53960;BME280;39866;48.638;-2.020;2023-02-22T04:39:13;101118.84;;;14.25;64.82
53960;BME280;39866;48.638;-2.020;2023-02-22T04:41:39;101116.00;;;14.29;64.56
53960;BME280;39866;48.638;-2.020;2023-02-22T04:44:04;101122.16;;;14.31;64.61
53960;BME280;39866;48.638;-2.020;2023-02-22T04:46:29;101119.16;;;14.17;65.02
53960;BME280;39866;48.638;-2.020;2023-02-22T04:48:55;101121.94;;;14.14;64.67
53960;BME280;39866;48.638;-2.020;2023-02-22T04:51:22;101119.25;;;14.14;65.10
53960;BME280;39866;48.638;-2.020;2023-02-22T04:53:48;101125.25;;;14.21;65.07
53960;BME280;39866;48.638;-2.020;2023-02-22T04:56:16;101122.13;;;14.08;65.06
53960;BME280;39866;48.638;-2.020;2023-02-22T04:58:42;101111.44;;;14.08;64.91
53960;BME280;39866;48.638;-2.020;2023-02-22T05:01:07;101131.53;;;14.20;64.84
53960;BME280;39866;48.638;-2.020;2023-02-22T05:03:32;101128.56;;;14.27;64.86
53960;BME280;39866;48.638;-2.020;2023-02-22T05:05:57;101129.56;;;14.25;64.90
53960;BME280;39866;48.638;-2.020;2023-02-22T05:08:23;101125.13;;;14.24;64.95
53960;BME280;39866;48.638;-2.020;2023-02-22T05:10:48;101130.19;;;14.31;64.75
53960;BME280;39866;48.638;-2.020;2023-02-22T05:13:13;101125.72;;;14.32;64.85
53960;BME280;39866;48.638;-2.020;2023-02-22T05:15:39;101126.81;;;14.26;64.70
53960;BME280;39866;48.638;-2.020;2023-02-22T05:18:04;101125.31;;;14.19;64.95
53960;BME280;39866;48.638;-2.020;2023-02-22T05:20:32;101128.81;;;14.21;65.09
53960;BME280;39866;48.638;-2.020;2023-02-22T05:22:59;101126.81;;;14.26;65.06
53960;BME280;39866;48.638;-2.020;2023-02-22T05:25:25;101129.47;;;14.03;65.47
53960;BME280;39866;48.638;-2.020;2023-02-22T05:27:56;101127.94;;;14.21;65.57
53960;BME280;39866;48.638;-2.020;2023-02-22T05:30:28;101118.38;;;14.13;65.42
53960;BME280;39866;48.638;-2.020;2023-02-22T05:32:54;101125.59;;;14.11;65.88
53960;BME280;39866;48.638;-2.020;2023-02-22T05:35:21;101125.41;;;14.16;65.79
53960;BME280;39866;48.638;-2.020;2023-02-22T05:37:46;101121.81;;;14.17;65.35
53960;BME280;39866;48.638;-2.020;2023-02-22T05:40:13;101123.56;;;14.18;65.43
53960;BME280;39866;48.638;-2.020;2023-02-22T05:42:41;101125.94;;;14.26;65.60
53960;BME280;39866;48.638;-2.020;2023-02-22T05:45:07;101125.84;;;14.29;65.30
53960;BME280;39866;48.638;-2.020;2023-02-22T05:47:33;101124.38;;;14.44;65.30
53960;BME280;39866;48.638;-2.020;2023-02-22T05:49:58;101129.69;;;14.45;65.04
53960;BME280;39866;48.638;-2.020;2023-02-22T05:52:24;101134.22;;;14.43;65.04
53960;BME280;39866;48.638;-2.020;2023-02-22T05:54:49;101133.13;;;14.49;64.71
53960;BME280;39866;48.638;-2.020;2023-02-22T05:57:15;101132.22;;;14.50;64.75
53960;BME280;39866;48.638;-2.020;2023-02-22T05:59:40;101130.28;;;14.53;64.82
53960;BME280;39866;48.638;-2.020;2023-02-22T06:02:07;101131.28;;;14.51;64.53
53960;BME280;39866;48.638;-2.020;2023-02-22T06:04:32;101124.38;;;14.44;64.68
53960;BME280;39866;48.638;-2.020;2023-02-22T06:06:58;101138.47;;;14.49;64.84
53960;BME280;39866;48.638;-2.020;2023-02-22T06:09:23;101135.09;;;14.44;64.75
53960;BME280;39866;48.638;-2.020;2023-02-22T06:11:48;101128.84;;;14.43;64.78
53960;BME280;39866;48.638;-2.020;2023-02-22T06:14:14;101139.19;;;14.54;64.65
53960;BME280;39866;48.638;-2.020;2023-02-22T06:16:39;101140.25;;;14.48;64.75
53960;BME280;39866;48.638;-2.020;2023-02-22T06:19:04;101140.06;;;14.54;64.47
53960;BME280;39866;48.638;-2.020;2023-02-22T06:21:30;101136.78;;;14.46;64.71
53960;BME280;39866;48.638;-2.020;2023-02-22T06:23:55;101141.94;;;14.04;65.56
53960;BME280;39866;48.638;-2.020;2023-02-22T06:26:21;101134.63;;;14.09;65.71
53960;BME280;39866;48.638;-2.020;2023-02-22T06:28:47;101128.47;;;13.82;66.32
53960;BME280;39866;48.638;-2.020;2023-02-22T06:31:13;101139.41;;;13.99;66.30
53960;BME280;39866;48.638;-2.020;2023-02-22T06:33:38;101128.50;;;14.05;65.85
53960;BME280;39866;48.638;-2.020;2023-02-22T06:36:04;101134.72;;;14.06;65.97
53960;BME280;39866;48.638;-2.020;2023-02-22T06:38:29;101128.50;;;14.05;65.92
53960;BME280;39866;48.638;-2.020;2023-02-22T06:40:55;101138.34;;;14.05;66.18
53960;BME280;39866;48.638;-2.020;2023-02-22T06:43:21;101132.75;;;14.11;66.23
53960;BME280;39866;48.638;-2.020;2023-02-22T06:45:48;101136.28;;;13.88;66.84
53960;BME280;39866;48.638;-2.020;2023-02-22T06:48:13;101140.34;;;13.98;66.57
53960;BME280;39866;48.638;-2.020;2023-02-22T06:50:39;101138.66;;;13.96;66.27
53960;BME280;39866;48.638;-2.020;2023-02-22T06:53:04;101139.41;;;13.99;66.09
53960;BME280;39866;48.638;-2.020;2023-02-22T06:55:31;101135.28;;;13.91;66.32
53960;BME280;39866;48.638;-2.020;2023-02-22T06:57:58;101139.56;;;13.96;66.35
53960;BME280;39866;48.638;-2.020;2023-02-22T07:00:25;101136.03;;;13.94;66.35
53960;BME280;39866;48.638;-2.020;2023-02-22T07:02:52;101141.28;;;13.97;66.08
53960;BME280;39866;48.638;-2.020;2023-02-22T07:05:19;101140.47;;;13.95;66.28
53960;BME280;39866;48.638;-2.020;2023-02-22T07:07:47;101148.22;;;14.03;66.37
53960;BME280;39866;48.638;-2.020;2023-02-22T07:10:32;101148.47;;;13.97;66.43
53960;BME280;39866;48.638;-2.020;2023-02-22T07:12:58;101148.03;;;13.84;66.79
53960;BME280;39866;48.638;-2.020;2023-02-22T07:15:25;101150.91;;;13.78;66.69
53960;BME280;39866;48.638;-2.020;2023-02-22T07:17:52;101155.28;;;13.80;67.05
53960;BME280;39866;48.638;-2.020;2023-02-22T07:20:18;101159.00;;;13.76;66.88
53960;BME280;39866;48.638;-2.020;2023-02-22T07:22:45;101161.78;;;13.47;67.91
53960;BME280;39866;48.638;-2.020;2023-02-22T07:25:10;101166.66;;;13.34;68.99
53960;BME280;39866;48.638;-2.020;2023-02-22T07:27:40;101166.38;;;13.43;69.71
53960;BME280;39866;48.638;-2.020;2023-02-22T07:30:09;101165.81;;;13.33;70.39
53960;BME280;39866;48.638;-2.020;2023-02-22T07:32:41;101172.78;;;13.39;70.61
53960;BME280;39866;48.638;-2.020;2023-02-22T07:35:13;101176.50;;;13.33;71.09
53960;BME280;39866;48.638;-2.020;2023-02-22T07:37:38;101175.38;;;13.41;71.10
53960;BME280;39866;48.638;-2.020;2023-02-22T07:40:04;101180.72;;;13.41;70.94
53960;BME280;39866;48.638;-2.020;2023-02-22T07:42:30;101178.34;;;13.58;70.56
53960;BME280;39866;48.638;-2.020;2023-02-22T07:44:55;101183.50;;;13.64;70.69
53960;BME280;39866;48.638;-2.020;2023-02-22T07:47:20;101183.25;;;13.72;70.39
53960;BME280;39866;48.638;-2.020;2023-02-22T07:49:45;101177.13;;;13.68;70.71
53960;BME280;39866;48.638;-2.020;2023-02-22T07:52:11;101184.31;;;13.66;70.57
53960;BME280;39866;48.638;-2.020;2023-02-22T07:54:36;101186.06;;;13.67;70.43
53960;BME280;39866;48.638;-2.020;2023-02-22T07:57:02;101189.75;;;13.63;70.85
53960;BME280;39866;48.638;-2.020;2023-02-22T07:59:27;101188.03;;;13.62;70.90
53960;BME280;39866;48.638;-2.020;2023-02-22T08:01:52;101180.94;;;13.61;70.62
53960;BME280;39866;48.638;-2.020;2023-02-22T08:04:18;101190.50;;;13.68;70.75
53960;BME280;39866;48.638;-2.020;2023-02-22T08:06:43;101188.63;;;13.70;70.94
53960;BME280;39866;48.638;-2.020;2023-02-22T08:09:10;101193.19;;;13.68;70.94
53960;BME280;39866;48.638;-2.020;2023-02-22T08:11:35;101195.69;;;13.73;70.76
53960;BME280;39866;48.638;-2.020;2023-02-22T08:14:01;101195.72;;;13.71;71.03
53960;BME280;39866;48.638;-2.020;2023-02-22T08:16:26;101187.59;;;13.74;70.93
53960;BME280;39866;48.638;-2.020;2023-02-22T08:18:51;101193.63;;;13.81;70.62
53960;BME280;39866;48.638;-2.020;2023-02-22T08:21:17;101191.88;;;13.80;70.81
53960;BME280;39866;48.638;-2.020;2023-02-22T08:23:42;101187.16;;;13.86;70.55
53960;BME280;39866;48.638;-2.020;2023-02-22T08:26:09;101185.84;;;13.73;70.58
53960;BME280;39866;48.638;-2.020;2023-02-22T08:28:35;101186.53;;;13.80;70.36
53960;BME280;39866;48.638;-2.020;2023-02-22T08:31:01;101201.22;;;13.93;70.18
53960;BME280;39866;48.638;-2.020;2023-02-22T08:33:26;101190.44;;;13.95;70.18
53960;BME280;39866;48.638;-2.020;2023-02-22T08:35:51;101189.69;;;13.91;70.00
53960;BME280;39866;48.638;-2.020;2023-02-22T08:40:42;101193.28;;;13.90;70.15
53960;BME280;39866;48.638;-2.020;2023-02-22T08:43:07;101197.06;;;13.84;70.24
53960;BME280;39866;48.638;-2.020;2023-02-22T08:45:33;101181.03;;;13.83;70.16
53960;BME280;39866;48.638;-2.020;2023-02-22T08:47:58;101186.09;;;13.92;70.02
53960;BME280;39866;48.638;-2.020;2023-02-22T08:50:29;101190.63;;;13.90;70.06
53960;BME280;39866;48.638;-2.020;2023-02-22T08:52:59;101185.34;;;13.88;70.11
53960;BME280;39866;48.638;-2.020;2023-02-22T08:55:27;101198.88;;;13.84;70.16
53960;BME280;39866;48.638;-2.020;2023-02-22T08:57:54;101194.69;;;13.75;70.46
53960;BME280;39866;48.638;-2.020;2023-02-22T09:00:21;101197.34;;;13.77;70.22
53960;BME280;39866;48.638;-2.020;2023-02-22T09:02:48;101192.94;;;13.74;70.11
53960;BME280;39866;48.638;-2.020;2023-02-22T09:05:14;101191.22;;;13.73;70.63
53960;BME280;39866;48.638;-2.020;2023-02-22T09:07:41;101188.84;;;13.64;70.77
53960;BME280;39866;48.638;-2.020;2023-02-22T09:10:12;101198.41;;;13.71;70.71
53960;BME280;39866;48.638;-2.020;2023-02-22T09:12:39;101190.69;;;13.62;70.77
53960;BME280;39866;48.638;-2.020;2023-02-22T09:15:05;101191.41;;;13.67;70.69
53960;BME280;39866;48.638;-2.020;2023-02-22T09:17:31;101196.72;;;13.69;71.08
53960;BME280;39866;48.638;-2.020;2023-02-22T09:19:56;101194.91;;;13.69;70.84
53960;BME280;39866;48.638;-2.020;2023-02-22T09:22:21;101189.34;;;13.75;70.95
53960;BME280;39866;48.638;-2.020;2023-02-22T09:24:47;101192.16;;;13.72;70.91
53960;BME280;39866;48.638;-2.020;2023-02-22T09:27:12;101186.72;;;13.74;70.87
53960;BME280;39866;48.638;-2.020;2023-02-22T09:29:37;101198.63;;;13.65;70.87
53960;BME280;39866;48.638;-2.020;2023-02-22T09:32:04;101187.91;;;13.65;70.73
53960;BME280;39866;48.638;-2.020;2023-02-22T09:34:29;101191.31;;;13.70;71.25
53960;BME280;39866;48.638;-2.020;2023-02-22T09:36:59;101193.94;;;13.72;71.32
53960;BME280;39866;48.638;-2.020;2023-02-22T09:39:25;101199.13;;;13.76;71.08
53960;BME280;39866;48.638;-2.020;2023-02-22T09:44:46;101199.00;;;13.79;71.12
53960;BME280;39866;48.638;-2.020;2023-02-22T09:47:18;101203.56;;;13.77;70.86
53960;BME280;39866;48.638;-2.020;2023-02-22T09:50:14;101198.72;;;13.62;71.32
53960;BME280;39866;48.638;-2.020;2023-02-22T09:53:01;101198.38;;;13.73;71.31
53960;BME280;39866;48.638;-2.020;2023-02-22T09:55:42;101194.50;;;13.81;70.91
53960;BME280;39866;48.638;-2.020;2023-02-22T09:58:27;101190.78;;;13.59;71.71
53960;BME280;39866;48.638;-2.020;2023-02-22T10:01:18;101191.88;;;13.80;71.20
53960;BME280;39866;48.638;-2.020;2023-02-22T10:09:23;101193.88;;;13.73;71.49
53960;BME280;39866;48.638;-2.020;2023-02-22T10:11:57;101199.41;;;13.69;71.03
53960;BME280;39866;48.638;-2.020;2023-02-22T10:14:47;101204.16;;;13.59;71.14
53960;BME280;39866;48.638;-2.020;2023-02-22T10:17:28;101204.91;;;13.64;71.01
53960;BME280;39866;48.638;-2.020;2023-02-22T10:20:13;101205.31;;;13.52;71.37
53960;BME280;39866;48.638;-2.020;2023-02-22T10:22:57;101200.13;;;13.47;72.06
53960;BME280;39866;48.638;-2.020;2023-02-22T10:25:27;101202.66;;;13.52;72.15
53960;BME280;39866;48.638;-2.020;2023-02-22T10:27:59;101208.56;;;13.35;72.78
53960;BME280;39866;48.638;-2.020;2023-02-22T10:30:38;101208.09;;;13.49;72.90
53960;BME280;39866;48.638;-2.020;2023-02-22T10:33:32;101214.34;;;13.74;72.41
53960;BME280;39866;48.638;-2.020;2023-02-22T10:36:00;101216.47;;;13.38;73.62
53960;BME280;39866;48.638;-2.020;2023-02-22T10:38:32;101214.94;;;12.72;75.74
53960;BME280;39866;48.638;-2.020;2023-02-22T10:43:39;101226.75;;;12.33;78.76
53960;BME280;39866;48.638;-2.020;2023-02-22T10:46:09;101228.31;;;12.40;77.80
53960;BME280;39866;48.638;-2.020;2023-02-22T10:48:39;101220.94;;;12.50;77.80
53960;BME280;39866;48.638;-2.020;2023-02-22T10:51:08;101232.25;;;11.95;78.78
53960;BME280;39866;48.638;-2.020;2023-02-22T10:53:35;101227.84;;;12.26;78.36
53960;BME280;39866;48.638;-2.020;2023-02-22T10:56:10;101235.66;;;12.00;78.53
53960;BME280;39866;48.638;-2.020;2023-02-22T10:59:02;101243.31;;;12.46;77.90
53960;BME280;39866;48.638;-2.020;2023-02-22T11:04:16;101246.69;;;13.12;75.28
53960;BME280;39866;48.638;-2.020;2023-02-22T11:06:45;101240.44;;;12.83;75.11
53960;BME280;39866;48.638;-2.020;2023-02-22T11:09:19;101249.81;;;12.97;74.25
53960;BME280;39866;48.638;-2.020;2023-02-22T11:11:48;101248.06;;;12.66;75.26
53960;BME280;39866;48.638;-2.020;2023-02-22T11:14:34;101248.81;;;12.71;75.02
53960;BME280;39866;48.638;-2.020;2023-02-22T11:17:00;101245.25;;;12.41;75.09
53960;BME280;39866;48.638;-2.020;2023-02-22T11:19:31;101233.28;;;12.54;74.97
53960;BME280;39866;48.638;-2.020;2023-02-22T11:24:29;101255.44;;;12.58;73.90
53960;BME280;39866;48.638;-2.020;2023-02-22T11:27:00;101242.44;;;13.05;72.31
53960;BME280;39866;48.638;-2.020;2023-02-22T11:29:32;101245.66;;;13.16;72.05
53960;BME280;39866;48.638;-2.020;2023-02-22T11:32:11;101253.06;;;12.78;72.15
53960;BME280;39866;48.638;-2.020;2023-02-22T11:34:40;101244.25;;;13.04;71.07
53960;BME280;39866;48.638;-2.020;2023-02-22T11:42:44;101237.28;;;12.69;72.46
53960;BME280;39866;48.638;-2.020;2023-02-22T11:45:18;101254.97;;;12.73;72.04
53960;BME280;39866;48.638;-2.020;2023-02-22T11:47:59;101254.66;;;12.54;72.67
53960;BME280;39866;48.638;-2.020;2023-02-22T11:51:02;101245.09;;;13.06;70.96
53960;BME280;39866;48.638;-2.020;2023-02-22T11:56:14;101260.97;;;13.41;70.09
53960;BME280;39866;48.638;-2.020;2023-02-22T11:58:51;101248.94;;;13.26;70.23
53960;BME280;39866;48.638;-2.020;2023-02-22T12:01:28;101248.13;;;13.22;70.25
53960;BME280;39866;48.638;-2.020;2023-02-22T12:15:07;101243.59;;;13.26;67.72
53960;BME280;39866;48.638;-2.020;2023-02-22T12:17:50;101238.50;;;13.17;68.27
53960;BME280;39866;48.638;-2.020;2023-02-22T12:20:19;101243.28;;;13.07;69.24
53960;BME280;39866;48.638;-2.020;2023-02-22T12:23:02;101238.38;;;13.23;69.00
53960;BME280;39866;48.638;-2.020;2023-02-22T12:25:39;101240.34;;;13.44;68.20
53960;BME280;39866;48.638;-2.020;2023-02-22T12:28:17;101249.56;;;13.34;68.02
53960;BME280;39866;48.638;-2.020;2023-02-22T12:30:53;101236.56;;;13.22;68.51
53960;BME280;39866;48.638;-2.020;2023-02-22T12:33:26;101248.34;;;13.16;68.30
53960;BME280;39866;48.638;-2.020;2023-02-22T12:35:55;101244.22;;;13.34;67.69
53960;BME280;39866;48.638;-2.020;2023-02-22T12:43:37;101250.13;;;13.45;68.12
53960;BME280;39866;48.638;-2.020;2023-02-22T12:46:18;101240.00;;;12.97;68.15
53960;BME280;39866;48.638;-2.020;2023-02-22T12:49:05;101248.06;;;12.96;68.46
53960;BME280;39866;48.638;-2.020;2023-02-22T12:54:22;101247.19;;;12.95;68.18
53960;BME280;39866;48.638;-2.020;2023-02-22T12:57:04;101245.41;;;12.96;66.80
53960;BME280;39866;48.638;-2.020;2023-02-22T12:59:52;101245.41;;;12.96;66.63
53960;BME280;39866;48.638;-2.020;2023-02-22T13:02:27;101237.44;;;13.22;66.33
53960;BME280;39866;48.638;-2.020;2023-02-22T13:04:53;101244.28;;;13.32;65.76
53960;BME280;39866;48.638;-2.020;2023-02-22T13:10:22;101254.50;;;13.48;63.65
53960;BME280;39866;48.638;-2.020;2023-02-22T13:20:46;101256.25;;;12.91;65.74
53960;BME280;39866;48.638;-2.020;2023-02-22T13:25:53;101256.34;;;13.16;64.64
53960;BME280;39866;48.638;-2.020;2023-02-22T13:28:45;101263.38;;;12.91;64.16
53960;BME280;39866;48.638;-2.020;2023-02-22T13:31:39;101260.78;;;13.17;63.01
53960;BME280;39866;48.638;-2.020;2023-02-22T13:48:23;101270.97;;;13.04;64.41
53960;BME280;39866;48.638;-2.020;2023-02-22T13:51:21;101270.69;;;13.13;62.86
53960;BME280;39866;48.638;-2.020;2023-02-22T13:53:53;101267.44;;;13.33;62.00
53960;BME280;39866;48.638;-2.020;2023-02-22T13:56:21;101263.06;;;13.31;62.02
53960;BME280;39866;48.638;-2.020;2023-02-22T13:58:50;101258.81;;;13.52;60.90
53960;BME280;39866;48.638;-2.020;2023-02-22T14:06:59;101267.69;;;13.80;60.80
53960;BME280;39866;48.638;-2.020;2023-02-22T14:09:55;101266.41;;;13.08;61.92
53960;BME280;39866;48.638;-2.020;2023-02-22T14:15:16;101266.88;;;12.93;62.01
53960;BME280;39866;48.638;-2.020;2023-02-22T14:17:47;101265.66;;;12.73;61.87
53960;BME280;39866;48.638;-2.020;2023-02-22T14:22:45;101267.88;;;13.18;61.46
53960;BME280;39866;48.638;-2.020;2023-02-22T14:25:36;101269.63;;;13.19;62.05
53960;BME280;39866;48.638;-2.020;2023-02-22T14:28:06;101268.16;;;13.09;62.25
53960;BME280;39866;48.638;-2.020;2023-02-22T14:30:34;101261.28;;;12.71;63.40
53960;BME280;39866;48.638;-2.020;2023-02-22T14:33:01;101263.84;;;12.75;61.85
53960;BME280;39866;48.638;-2.020;2023-02-22T14:35:39;101277.75;;;12.86;62.43
53960;BME280;39866;48.638;-2.020;2023-02-22T14:38:13;101270.72;;;13.42;62.09
53960;BME280;39866;48.638;-2.020;2023-02-22T14:40:44;101268.00;;;13.13;61.92
53960;BME280;39866;48.638;-2.020;2023-02-22T14:43:15;101275.78;;;13.51;61.52
53960;BME280;39866;48.638;-2.020;2023-02-22T14:45:55;101274.53;;;12.75;61.91
53960;BME280;39866;48.638;-2.020;2023-02-22T14:48:31;101281.44;;;12.82;62.63
53960;BME280;39866;48.638;-2.020;2023-02-22T14:56:22;101279.91;;;13.87;61.80
53960;BME280;39866;48.638;-2.020;2023-02-22T14:59:14;101276.09;;;13.12;61.24